sensor_id;sensor_type;location;lat;lon;timestamp;P1;durP1;ratioP1;P2;durP2;ratioP2
75135;SDS011;63707;52.212;9.540;2023-12-07T00:00:50;40.22;;;18.80;;
75135;SDS011;63707;52.212;9.540;2023-12-07T00:03:16;40.58;;;19.08;;
75135;SDS011;63707;52.212;9.540;2023-12-07T00:05:41;35.10;;;17.85;;
75135;SDS011;63707;52.212;9.540;2023-12-07T00:08:08;39.17;;;19.20;;
75135;SDS011;63707;52.212;9.540;2023-12-07T00:10:34;38.70;;;18.95;;
75135;SDS011;63707;52.212;9.540;2023-12-07T00:13:01;36.80;;;18.83;;
75135;SDS011;63707;52.212;9.540;2023-12-07T00:15:26;39.53;;;19.20;;
75135;SDS011;63707;52.212;9.540;2023-12-07T00:17:52;41.08;;;19.42;;
75135;SDS011;63707;52.212;9.540;2023-12-07T00:20:17;36.40;;;18.17;;
75135;SDS011;63707;52.212;9.540;2023-12-07T00:22:43;37.08;;;19.15;;
75135;SDS011;63707;52.212;9.540;2023-12-07T00:25:08;43.25;;;19.67;;
75135;SDS011;63707;52.212;9.540;2023-12-07T00:27:34;40.15;;;19.25;;
75135;SDS011;63707;52.212;9.540;2023-12-07T00:30:01;39.13;;;19.10;;
75135;SDS011;63707;52.212;9.540;2023-12-07T00:32:26;36.83;;;18.98;;
75135;SDS011;63707;52.212;9.540;2023-12-07T00:34:52;40.75;;;18.58;;
75135;SDS011;63707;52.212;9.540;2023-12-07T00:37:18;38.95;;;19.52;;
75135;SDS011;63707;52.212;9.540;2023-12-07T00:39:43;42.05;;;19.60;;
75135;SDS011;63707;52.212;9.540;2023-12-07T00:42:09;39.03;;;18.42;;
75135;SDS011;63707;52.212;9.540;2023-12-07T00:44:38;40.63;;;19.25;;
75135;SDS011;63707;52.212;9.540;2023-12-07T00:47:05;41.45;;;18.70;;
75135;SDS011;63707;52.212;9.540;2023-12-07T00:49:31;38.80;;;19.00;;
75135;SDS011;63707;52.212;9.540;2023-12-07T00:51:56;44.70;;;20.02;;
75135;SDS011;63707;52.212;9.540;2023-12-07T00:54:22;42.83;;;20.05;;
75135;SDS011;63707;52.212;9.540;2023-12-07T00:56:47;40.97;;;19.75;;
75135;SDS011;63707;52.212;9.540;2023-12-07T00:59:13;39.88;;;18.92;;
75135;SDS011;63707;52.212;9.540;2023-12-07T01:01:38;44.53;;;20.77;;
75135;SDS011;63707;52.212;9.540;2023-12-07T01:04:05;42.33;;;20.67;;
75135;SDS011;63707;52.212;9.540;2023-12-07T01:06:31;41.60;;;19.95;;
75135;SDS011;63707;52.212;9.540;2023-12-07T01:08:56;41.72;;;20.15;;
75135;SDS011;63707;52.212;9.540;2023-12-07T01:11:22;44.53;;;21.17;;
75135;SDS011;63707;52.212;9.540;2023-12-07T01:13:47;41.33;;;19.60;;
75135;SDS011;63707;52.212;9.540;2023-12-07T01:16:13;40.72;;;19.48;;
75135;SDS011;63707;52.212;9.540;2023-12-07T01:18:38;43.15;;;20.05;;
75135;SDS011;63707;52.212;9.540;2023-12-07T01:21:05;43.08;;;20.40;;
75135;SDS011;63707;52.212;9.540;2023-12-07T01:23:31;42.20;;;18.38;;
75135;SDS011;63707;52.212;9.540;2023-12-07T01:25:57;43.83;;;20.05;;
75135;SDS011;63707;52.212;9.540;2023-12-07T01:28:22;40.10;;;18.77;;
75135;SDS011;63707;52.212;9.540;2023-12-07T01:30:48;41.38;;;18.73;;
75135;SDS011;63707;52.212;9.540;2023-12-07T01:33:13;40.42;;;19.23;;
75135;SDS011;63707;52.212;9.540;2023-12-07T01:35:38;41.00;;;19.23;;
75135;SDS011;63707;52.212;9.540;2023-12-07T01:38:05;41.40;;;18.55;;
75135;SDS011;63707;52.212;9.540;2023-12-07T01:40:31;38.17;;;18.40;;
75135;SDS011;63707;52.212;9.540;2023-12-07T01:42:56;39.80;;;19.98;;
75135;SDS011;63707;52.212;9.540;2023-12-07T01:45:22;42.47;;;19.60;;
75135;SDS011;63707;52.212;9.540;2023-12-07T01:47:48;38.03;;;18.92;;
75135;SDS011;63707;52.212;9.540;2023-12-07T01:50:15;50.03;;;20.48;;
75135;SDS011;63707;52.212;9.540;2023-12-07T01:52:43;44.03;;;19.15;;
75135;SDS011;63707;52.212;9.540;2023-12-07T01:55:13;43.20;;;20.48;;
75135;SDS011;63707;52.212;9.540;2023-12-07T01:57:39;40.67;;;19.33;;
75135;SDS011;63707;52.212;9.540;2023-12-07T02:00:09;40.13;;;19.30;;
75135;SDS011;63707;52.212;9.540;2023-12-07T02:02:35;43.22;;;20.60;;
75135;SDS011;63707;52.212;9.540;2023-12-07T02:05:01;38.35;;;18.60;;
75135;SDS011;63707;52.212;9.540;2023-12-07T02:07:28;43.47;;;20.15;;
75135;SDS011;63707;52.212;9.540;2023-12-07T02:09:55;43.78;;;20.15;;
75135;SDS011;63707;52.212;9.540;2023-12-07T02:12:24;40.45;;;18.85;;
75135;SDS011;63707;52.212;9.540;2023-12-07T02:14:50;40.33;;;18.58;;
75135;SDS011;63707;52.212;9.540;2023-12-07T02:17:16;43.22;;;19.15;;
75135;SDS011;63707;52.212;9.540;2023-12-07T02:19:52;42.72;;;18.92;;
75135;SDS011;63707;52.212;9.540;2023-12-07T02:22:23;44.88;;;20.55;;
75135;SDS011;63707;52.212;9.540;2023-12-07T02:24:57;47.42;;;19.70;;
75135;SDS011;63707;52.212;9.540;2023-12-07T02:27:35;42.75;;;19.33;;
75135;SDS011;63707;52.212;9.540;2023-12-07T02:30:01;49.97;;;20.13;;
75135;SDS011;63707;52.212;9.540;2023-12-07T02:32:27;45.67;;;20.83;;
75135;SDS011;63707;52.212;9.540;2023-12-07T02:34:53;50.05;;;20.67;;
75135;SDS011;63707;52.212;9.540;2023-12-07T02:37:19;43.10;;;20.52;;
75135;SDS011;63707;52.212;9.540;2023-12-07T02:39:46;43.92;;;19.63;;
75135;SDS011;63707;52.212;9.540;2023-12-07T02:42:13;46.10;;;20.58;;
75135;SDS011;63707;52.212;9.540;2023-12-07T02:44:41;46.50;;;21.15;;
75135;SDS011;63707;52.212;9.540;2023-12-07T02:47:08;44.90;;;20.73;;
75135;SDS011;63707;52.212;9.540;2023-12-07T02:49:33;41.75;;;19.55;;
75135;SDS011;63707;52.212;9.540;2023-12-07T02:51:59;44.50;;;20.42;;
75135;SDS011;63707;52.212;9.540;2023-12-07T02:54:24;44.60;;;20.55;;
75135;SDS011;63707;52.212;9.540;2023-12-07T02:56:50;43.10;;;19.90;;
75135;SDS011;63707;52.212;9.540;2023-12-07T02:59:15;41.40;;;19.73;;
75135;SDS011;63707;52.212;9.540;2023-12-07T03:01:42;48.08;;;20.67;;
75135;SDS011;63707;52.212;9.540;2023-12-07T03:04:07;47.13;;;20.85;;
75135;SDS011;63707;52.212;9.540;2023-12-07T03:06:33;48.47;;;20.55;;
75135;SDS011;63707;52.212;9.540;2023-12-07T03:08:58;47.08;;;21.23;;
75135;SDS011;63707;52.212;9.540;2023-12-07T03:11:24;45.05;;;20.48;;
75135;SDS011;63707;52.212;9.540;2023-12-07T03:13:49;46.92;;;21.02;;
75135;SDS011;63707;52.212;9.540;2023-12-07T03:16:15;46.10;;;21.30;;
75135;SDS011;63707;52.212;9.540;2023-12-07T03:18:42;45.97;;;22.15;;
75135;SDS011;63707;52.212;9.540;2023-12-07T03:21:07;51.72;;;22.25;;
75135;SDS011;63707;52.212;9.540;2023-12-07T03:23:32;53.38;;;22.27;;
75135;SDS011;63707;52.212;9.540;2023-12-07T03:25:58;54.13;;;22.02;;
75135;SDS011;63707;52.212;9.540;2023-12-07T03:28:23;48.05;;;21.80;;
75135;SDS011;63707;52.212;9.540;2023-12-07T03:30:49;53.85;;;22.92;;
75135;SDS011;63707;52.212;9.540;2023-12-07T03:33:14;57.50;;;22.77;;
75135;SDS011;63707;52.212;9.540;2023-12-07T03:35:41;46.65;;;21.98;;
75135;SDS011;63707;52.212;9.540;2023-12-07T03:38:07;53.53;;;22.55;;
75135;SDS011;63707;52.212;9.540;2023-12-07T03:40:32;57.53;;;23.02;;
75135;SDS011;63707;52.212;9.540;2023-12-07T03:42:58;50.63;;;22.40;;
75135;SDS011;63707;52.212;9.540;2023-12-07T03:45:24;56.30;;;24.42;;
75135;SDS011;63707;52.212;9.540;2023-12-07T03:47:49;62.15;;;23.92;;
75135;SDS011;63707;52.212;9.540;2023-12-07T03:50:15;57.90;;;23.83;;
75135;SDS011;63707;52.212;9.540;2023-12-07T03:52:42;60.55;;;25.10;;
75135;SDS011;63707;52.212;9.540;2023-12-07T03:55:07;58.30;;;24.77;;
75135;SDS011;63707;52.212;9.540;2023-12-07T03:57:33;63.08;;;23.83;;
75135;SDS011;63707;52.212;9.540;2023-12-07T03:59:59;56.40;;;24.33;;
75135;SDS011;63707;52.212;9.540;2023-12-07T04:02:25;56.70;;;23.98;;
75135;SDS011;63707;52.212;9.540;2023-12-07T04:04:50;60.83;;;25.10;;
75135;SDS011;63707;52.212;9.540;2023-12-07T04:07:15;59.42;;;24.70;;
75135;SDS011;63707;52.212;9.540;2023-12-07T04:09:42;56.15;;;24.65;;
75135;SDS011;63707;52.212;9.540;2023-12-07T04:12:08;52.63;;;22.95;;
75135;SDS011;63707;52.212;9.540;2023-12-07T04:14:33;55.28;;;22.63;;
75135;SDS011;63707;52.212;9.540;2023-12-07T04:16:59;55.28;;;23.05;;
75135;SDS011;63707;52.212;9.540;2023-12-07T04:19:25;51.58;;;21.58;;
75135;SDS011;63707;52.212;9.540;2023-12-07T04:21:51;56.80;;;23.42;;
75135;SDS011;63707;52.212;9.540;2023-12-07T04:24:16;52.03;;;21.85;;
75135;SDS011;63707;52.212;9.540;2023-12-07T04:26:43;56.90;;;23.30;;
75135;SDS011;63707;52.212;9.540;2023-12-07T04:29:09;56.80;;;22.65;;
75135;SDS011;63707;52.212;9.540;2023-12-07T04:31:34;54.30;;;23.55;;
75135;SDS011;63707;52.212;9.540;2023-12-07T04:34:00;57.08;;;22.67;;
75135;SDS011;63707;52.212;9.540;2023-12-07T04:36:26;55.80;;;24.00;;
75135;SDS011;63707;52.212;9.540;2023-12-07T04:38:52;56.65;;;23.27;;
75135;SDS011;63707;52.212;9.540;2023-12-07T04:41:17;61.95;;;24.30;;
75135;SDS011;63707;52.212;9.540;2023-12-07T04:43:44;54.75;;;22.02;;
75135;SDS011;63707;52.212;9.540;2023-12-07T04:46:09;56.10;;;23.27;;
75135;SDS011;63707;52.212;9.540;2023-12-07T04:48:35;60.33;;;24.33;;
75135;SDS011;63707;52.212;9.540;2023-12-07T04:51:00;57.78;;;24.10;;
75135;SDS011;63707;52.212;9.540;2023-12-07T04:53:26;57.35;;;23.77;;
75135;SDS011;63707;52.212;9.540;2023-12-07T04:55:51;67.43;;;24.85;;
75135;SDS011;63707;52.212;9.540;2023-12-07T04:58:17;65.18;;;25.40;;
75135;SDS011;63707;52.212;9.540;2023-12-07T05:00:44;63.15;;;25.45;;
75135;SDS011;63707;52.212;9.540;2023-12-07T05:03:09;66.90;;;25.77;;
75135;SDS011;63707;52.212;9.540;2023-12-07T05:05:34;63.90;;;25.25;;
75135;SDS011;63707;52.212;9.540;2023-12-07T05:08:01;63.67;;;25.55;;
75135;SDS011;63707;52.212;9.540;2023-12-07T05:10:26;66.50;;;26.30;;
75135;SDS011;63707;52.212;9.540;2023-12-07T05:12:52;61.53;;;24.60;;
75135;SDS011;63707;52.212;9.540;2023-12-07T05:15:17;65.10;;;24.38;;
75135;SDS011;63707;52.212;9.540;2023-12-07T05:17:44;64.45;;;25.13;;
75135;SDS011;63707;52.212;9.540;2023-12-07T05:20:10;61.10;;;23.02;;
75135;SDS011;63707;52.212;9.540;2023-12-07T05:22:37;63.30;;;24.50;;
75135;SDS011;63707;52.212;9.540;2023-12-07T05:25:03;65.40;;;26.90;;
75135;SDS011;63707;52.212;9.540;2023-12-07T05:27:29;72.72;;;27.55;;
75135;SDS011;63707;52.212;9.540;2023-12-07T05:29:55;65.43;;;26.10;;
75135;SDS011;63707;52.212;9.540;2023-12-07T05:32:21;64.93;;;24.83;;
75135;SDS011;63707;52.212;9.540;2023-12-07T05:34:48;69.78;;;25.13;;
75135;SDS011;63707;52.212;9.540;2023-12-07T05:37:15;67.25;;;25.17;;
75135;SDS011;63707;52.212;9.540;2023-12-07T05:39:40;63.75;;;23.55;;
75135;SDS011;63707;52.212;9.540;2023-12-07T05:42:06;72.10;;;26.33;;
75135;SDS011;63707;52.212;9.540;2023-12-07T05:44:31;60.88;;;23.80;;
75135;SDS011;63707;52.212;9.540;2023-12-07T05:46:57;62.88;;;23.85;;
75135;SDS011;63707;52.212;9.540;2023-12-07T05:49:22;66.45;;;25.77;;
75135;SDS011;63707;52.212;9.540;2023-12-07T05:51:50;72.03;;;26.83;;
75135;SDS011;63707;52.212;9.540;2023-12-07T05:54:15;66.22;;;25.08;;
75135;SDS011;63707;52.212;9.540;2023-12-07T05:56:41;63.50;;;26.02;;
75135;SDS011;63707;52.212;9.540;2023-12-07T05:59:06;61.15;;;23.67;;
75135;SDS011;63707;52.212;9.540;2023-12-07T06:01:32;60.67;;;25.05;;
75135;SDS011;63707;52.212;9.540;2023-12-07T06:03:57;67.82;;;25.85;;
75135;SDS011;63707;52.212;9.540;2023-12-07T06:06:23;64.30;;;26.67;;
75135;SDS011;63707;52.212;9.540;2023-12-07T06:08:50;64.90;;;25.20;;
75135;SDS011;63707;52.212;9.540;2023-12-07T06:11:15;64.47;;;24.77;;
75135;SDS011;63707;52.212;9.540;2023-12-07T06:13:41;64.07;;;24.58;;
75135;SDS011;63707;52.212;9.540;2023-12-07T06:16:06;68.75;;;27.85;;
75135;SDS011;63707;52.212;9.540;2023-12-07T06:18:32;61.70;;;25.08;;
75135;SDS011;63707;52.212;9.540;2023-12-07T06:20:57;64.68;;;25.95;;
75135;SDS011;63707;52.212;9.540;2023-12-07T06:23:23;57.30;;;23.17;;
75135;SDS011;63707;52.212;9.540;2023-12-07T06:25:50;60.50;;;24.42;;
75135;SDS011;63707;52.212;9.540;2023-12-07T06:28:15;60.30;;;24.95;;
75135;SDS011;63707;52.212;9.540;2023-12-07T06:30:41;62.22;;;24.05;;
75135;SDS011;63707;52.212;9.540;2023-12-07T06:33:06;61.30;;;23.30;;
75135;SDS011;63707;52.212;9.540;2023-12-07T06:35:32;59.42;;;24.17;;
75135;SDS011;63707;52.212;9.540;2023-12-07T06:37:57;64.13;;;23.35;;
75135;SDS011;63707;52.212;9.540;2023-12-07T06:40:23;58.80;;;25.42;;
75135;SDS011;63707;52.212;9.540;2023-12-07T06:42:49;64.20;;;24.30;;
75135;SDS011;63707;52.212;9.540;2023-12-07T06:45:15;61.88;;;24.90;;
75135;SDS011;63707;52.212;9.540;2023-12-07T06:47:40;63.47;;;23.88;;
75135;SDS011;63707;52.212;9.540;2023-12-07T06:50:09;61.75;;;24.38;;
75135;SDS011;63707;52.212;9.540;2023-12-07T06:52:35;61.03;;;24.80;;
75135;SDS011;63707;52.212;9.540;2023-12-07T06:55:01;62.53;;;24.98;;
75135;SDS011;63707;52.212;9.540;2023-12-07T06:57:26;61.38;;;25.30;;
75135;SDS011;63707;52.212;9.540;2023-12-07T06:59:54;65.68;;;25.20;;
75135;SDS011;63707;52.212;9.540;2023-12-07T07:02:20;66.43;;;25.58;;
75135;SDS011;63707;52.212;9.540;2023-12-07T07:04:45;76.50;;;26.73;;
75135;SDS011;63707;52.212;9.540;2023-12-07T07:07:13;61.42;;;24.95;;
75135;SDS011;63707;52.212;9.540;2023-12-07T07:09:39;63.30;;;25.25;;
75135;SDS011;63707;52.212;9.540;2023-12-07T07:12:05;65.82;;;26.42;;
75135;SDS011;63707;52.212;9.540;2023-12-07T07:14:30;64.57;;;26.77;;
75135;SDS011;63707;52.212;9.540;2023-12-07T07:16:57;68.18;;;27.15;;
75135;SDS011;63707;52.212;9.540;2023-12-07T07:19:23;68.15;;;26.75;;
75135;SDS011;63707;52.212;9.540;2023-12-07T07:21:48;76.65;;;27.77;;
75135;SDS011;63707;52.212;9.540;2023-12-07T07:24:14;73.07;;;28.33;;
75135;SDS011;63707;52.212;9.540;2023-12-07T07:26:39;71.25;;;28.00;;
75135;SDS011;63707;52.212;9.540;2023-12-07T07:29:05;69.03;;;26.75;;
75135;SDS011;63707;52.212;9.540;2023-12-07T07:31:31;73.10;;;26.52;;
75135;SDS011;63707;52.212;9.540;2023-12-07T07:33:58;71.53;;;27.50;;
75135;SDS011;63707;52.212;9.540;2023-12-07T07:36:23;70.15;;;27.83;;
75135;SDS011;63707;52.212;9.540;2023-12-07T07:38:49;70.63;;;27.40;;
75135;SDS011;63707;52.212;9.540;2023-12-07T07:41:14;64.85;;;26.02;;
75135;SDS011;63707;52.212;9.540;2023-12-07T07:43:40;65.78;;;26.52;;
75135;SDS011;63707;52.212;9.540;2023-12-07T07:46:05;74.85;;;29.15;;
75135;SDS011;63707;52.212;9.540;2023-12-07T07:48:31;70.50;;;27.48;;
75135;SDS011;63707;52.212;9.540;2023-12-07T07:50:58;68.95;;;25.80;;
75135;SDS011;63707;52.212;9.540;2023-12-07T07:53:24;67.75;;;26.33;;
75135;SDS011;63707;52.212;9.540;2023-12-07T07:55:49;70.63;;;27.33;;
75135;SDS011;63707;52.212;9.540;2023-12-07T07:58:15;65.95;;;25.67;;
75135;SDS011;63707;52.212;9.540;2023-12-07T08:00:40;65.90;;;27.15;;
75135;SDS011;63707;52.212;9.540;2023-12-07T08:03:06;66.82;;;26.67;;
75135;SDS011;63707;52.212;9.540;2023-12-07T08:05:31;71.20;;;29.55;;
75135;SDS011;63707;52.212;9.540;2023-12-07T08:07:59;62.65;;;25.80;;
75135;SDS011;63707;52.212;9.540;2023-12-07T08:10:25;66.90;;;27.17;;
75135;SDS011;63707;52.212;9.540;2023-12-07T08:12:50;68.18;;;25.65;;
75135;SDS011;63707;52.212;9.540;2023-12-07T08:15:16;61.15;;;25.25;;
75135;SDS011;63707;52.212;9.540;2023-12-07T08:17:41;65.03;;;27.70;;
75135;SDS011;63707;52.212;9.540;2023-12-07T08:20:07;67.45;;;25.48;;
75135;SDS011;63707;52.212;9.540;2023-12-07T08:22:36;64.03;;;25.75;;
75135;SDS011;63707;52.212;9.540;2023-12-07T08:25:04;61.38;;;26.35;;
75135;SDS011;63707;52.212;9.540;2023-12-07T08:27:30;67.57;;;26.23;;
75135;SDS011;63707;52.212;9.540;2023-12-07T08:29:56;67.55;;;27.75;;
75135;SDS011;63707;52.212;9.540;2023-12-07T08:32:21;61.28;;;25.42;;
75135;SDS011;63707;52.212;9.540;2023-12-07T08:34:47;63.85;;;26.15;;
75135;SDS011;63707;52.212;9.540;2023-12-07T08:37:12;57.25;;;24.05;;
75135;SDS011;63707;52.212;9.540;2023-12-07T08:39:38;56.00;;;23.25;;
75135;SDS011;63707;52.212;9.540;2023-12-07T08:42:05;57.97;;;23.38;;
75135;SDS011;63707;52.212;9.540;2023-12-07T08:44:30;56.08;;;23.67;;
75135;SDS011;63707;52.212;9.540;2023-12-07T08:46:56;55.65;;;23.75;;
75135;SDS011;63707;52.212;9.540;2023-12-07T08:49:21;58.38;;;24.40;;
75135;SDS011;63707;52.212;9.540;2023-12-07T08:51:47;60.83;;;24.00;;
75135;SDS011;63707;52.212;9.540;2023-12-07T08:54:12;51.85;;;22.77;;
75135;SDS011;63707;52.212;9.540;2023-12-07T08:56:38;53.03;;;21.88;;
75135;SDS011;63707;52.212;9.540;2023-12-07T08:59:05;57.97;;;22.83;;
75135;SDS011;63707;52.212;9.540;2023-12-07T09:01:30;58.80;;;25.58;;
75135;SDS011;63707;52.212;9.540;2023-12-07T09:03:58;62.10;;;23.45;;
75135;SDS011;63707;52.212;9.540;2023-12-07T09:06:23;55.08;;;24.50;;
75135;SDS011;63707;52.212;9.540;2023-12-07T09:08:50;57.00;;;23.38;;
75135;SDS011;63707;52.212;9.540;2023-12-07T09:11:15;55.33;;;22.15;;
75135;SDS011;63707;52.212;9.540;2023-12-07T09:13:41;56.40;;;24.38;;
75135;SDS011;63707;52.212;9.540;2023-12-07T09:16:08;54.50;;;24.50;;
75135;SDS011;63707;52.212;9.540;2023-12-07T09:18:33;58.92;;;27.02;;
75135;SDS011;63707;52.212;9.540;2023-12-07T09:21:02;51.50;;;23.92;;
75135;SDS011;63707;52.212;9.540;2023-12-07T09:23:28;53.03;;;21.33;;
75135;SDS011;63707;52.212;9.540;2023-12-07T09:25:53;55.70;;;22.83;;
75135;SDS011;63707;52.212;9.540;2023-12-07T09:28:19;50.95;;;22.50;;
75135;SDS011;63707;52.212;9.540;2023-12-07T09:30:44;52.88;;;21.58;;
75135;SDS011;63707;52.212;9.540;2023-12-07T09:33:11;48.53;;;21.17;;
75135;SDS011;63707;52.212;9.540;2023-12-07T09:35:38;52.70;;;22.80;;
75135;SDS011;63707;52.212;9.540;2023-12-07T09:38:04;48.42;;;20.70;;
75135;SDS011;63707;52.212;9.540;2023-12-07T09:40:30;47.10;;;21.08;;
75135;SDS011;63707;52.212;9.540;2023-12-07T09:42:55;51.42;;;21.02;;
75135;SDS011;63707;52.212;9.540;2023-12-07T09:45:21;52.63;;;22.55;;
75135;SDS011;63707;52.212;9.540;2023-12-07T09:47:47;50.25;;;21.70;;
75135;SDS011;63707;52.212;9.540;2023-12-07T09:50:16;51.08;;;21.50;;
75135;SDS011;63707;52.212;9.540;2023-12-07T09:52:42;51.15;;;21.55;;
75135;SDS011;63707;52.212;9.540;2023-12-07T09:55:08;49.63;;;20.98;;
75135;SDS011;63707;52.212;9.540;2023-12-07T09:57:35;50.65;;;21.73;;
75135;SDS011;63707;52.212;9.540;2023-12-07T10:00:02;52.10;;;21.65;;
75135;SDS011;63707;52.212;9.540;2023-12-07T10:02:29;47.80;;;21.73;;
75135;SDS011;63707;52.212;9.540;2023-12-07T10:05:04;52.70;;;22.30;;
75135;SDS011;63707;52.212;9.540;2023-12-07T10:07:36;51.60;;;21.60;;
75135;SDS011;63707;52.212;9.540;2023-12-07T10:10:03;50.63;;;22.02;;
75135;SDS011;63707;52.212;9.540;2023-12-07T10:12:29;54.03;;;23.67;;
75135;SDS011;63707;52.212;9.540;2023-12-07T10:14:54;49.28;;;21.92;;
75135;SDS011;63707;52.212;9.540;2023-12-07T10:17:20;50.05;;;21.58;;
75135;SDS011;63707;52.212;9.540;2023-12-07T10:19:45;51.03;;;21.80;;
75135;SDS011;63707;52.212;9.540;2023-12-07T10:22:13;52.63;;;22.25;;
75135;SDS011;63707;52.212;9.540;2023-12-07T10:24:40;50.13;;;21.77;;
75135;SDS011;63707;52.212;9.540;2023-12-07T10:27:06;47.58;;;21.70;;
75135;SDS011;63707;52.212;9.540;2023-12-07T10:29:34;55.50;;;23.38;;
75135;SDS011;63707;52.212;9.540;2023-12-07T10:32:01;54.13;;;22.25;;
75135;SDS011;63707;52.212;9.540;2023-12-07T10:34:27;52.15;;;21.65;;
75135;SDS011;63707;52.212;9.540;2023-12-07T10:36:53;51.92;;;21.85;;
75135;SDS011;63707;52.212;9.540;2023-12-07T10:39:20;55.00;;;22.42;;
75135;SDS011;63707;52.212;9.540;2023-12-07T10:41:50;54.20;;;21.98;;
75135;SDS011;63707;52.212;9.540;2023-12-07T10:44:21;47.70;;;21.05;;
75135;SDS011;63707;52.212;9.540;2023-12-07T10:46:51;51.72;;;22.52;;
75135;SDS011;63707;52.212;9.540;2023-12-07T10:49:19;52.55;;;21.55;;
75135;SDS011;63707;52.212;9.540;2023-12-07T10:51:50;48.78;;;21.05;;
75135;SDS011;63707;52.212;9.540;2023-12-07T10:54:21;49.58;;;22.25;;
75135;SDS011;63707;52.212;9.540;2023-12-07T10:56:48;48.70;;;21.15;;
75135;SDS011;63707;52.212;9.540;2023-12-07T10:59:16;54.83;;;21.70;;
75135;SDS011;63707;52.212;9.540;2023-12-07T11:01:43;54.10;;;23.00;;
75135;SDS011;63707;52.212;9.540;2023-12-07T11:04:10;63.20;;;23.98;;
75135;SDS011;63707;52.212;9.540;2023-12-07T11:06:37;56.47;;;23.75;;
75135;SDS011;63707;52.212;9.540;2023-12-07T11:09:04;62.75;;;24.75;;
75135;SDS011;63707;52.212;9.540;2023-12-07T11:11:34;60.17;;;24.73;;
75135;SDS011;63707;52.212;9.540;2023-12-07T11:14:06;53.28;;;23.20;;
75135;SDS011;63707;52.212;9.540;2023-12-07T11:16:40;54.58;;;23.05;;
75135;SDS011;63707;52.212;9.540;2023-12-07T11:19:07;54.63;;;23.42;;
75135;SDS011;63707;52.212;9.540;2023-12-07T11:22:10;55.35;;;23.55;;
75135;SDS011;63707;52.212;9.540;2023-12-07T11:24:37;53.80;;;22.73;;
75135;SDS011;63707;52.212;9.540;2023-12-07T11:27:03;54.90;;;23.65;;
75135;SDS011;63707;52.212;9.540;2023-12-07T11:29:29;51.97;;;22.88;;
75135;SDS011;63707;52.212;9.540;2023-12-07T11:31:57;57.40;;;23.05;;
75135;SDS011;63707;52.212;9.540;2023-12-07T11:34:35;54.50;;;22.30;;
75135;SDS011;63707;52.212;9.540;2023-12-07T11:37:01;53.88;;;22.67;;
75135;SDS011;63707;52.212;9.540;2023-12-07T11:39:28;56.38;;;23.33;;
75135;SDS011;63707;52.212;9.540;2023-12-07T11:41:54;55.00;;;21.63;;
75135;SDS011;63707;52.212;9.540;2023-12-07T11:44:24;52.88;;;22.77;;
75135;SDS011;63707;52.212;9.540;2023-12-07T11:46:49;58.63;;;24.42;;
75135;SDS011;63707;52.212;9.540;2023-12-07T11:49:16;56.83;;;23.13;;
75135;SDS011;63707;52.212;9.540;2023-12-07T11:51:42;55.00;;;22.40;;
75135;SDS011;63707;52.212;9.540;2023-12-07T11:54:08;52.47;;;22.88;;
75135;SDS011;63707;52.212;9.540;2023-12-07T11:56:36;58.03;;;23.17;;
75135;SDS011;63707;52.212;9.540;2023-12-07T11:59:02;55.03;;;23.17;;
75135;SDS011;63707;52.212;9.540;2023-12-07T12:01:28;55.35;;;23.33;;
75135;SDS011;63707;52.212;9.540;2023-12-07T12:03:55;53.92;;;22.23;;
75135;SDS011;63707;52.212;9.540;2023-12-07T12:06:23;58.78;;;23.77;;
75135;SDS011;63707;52.212;9.540;2023-12-07T12:08:48;50.88;;;22.05;;
75135;SDS011;63707;52.212;9.540;2023-12-07T12:11:14;53.42;;;22.80;;
75135;SDS011;63707;52.212;9.540;2023-12-07T12:13:40;60.45;;;24.27;;
75135;SDS011;63707;52.212;9.540;2023-12-07T12:16:06;47.45;;;21.55;;
75135;SDS011;63707;52.212;9.540;2023-12-07T12:18:32;54.22;;;23.02;;
75135;SDS011;63707;52.212;9.540;2023-12-07T12:20:58;58.55;;;24.88;;
75135;SDS011;63707;52.212;9.540;2023-12-07T12:23:25;54.38;;;21.85;;
75135;SDS011;63707;52.212;9.540;2023-12-07T12:25:51;62.15;;;25.10;;
75135;SDS011;63707;52.212;9.540;2023-12-07T12:28:17;49.97;;;21.38;;
75135;SDS011;63707;52.212;9.540;2023-12-07T12:30:46;50.15;;;22.42;;
75135;SDS011;63707;52.212;9.540;2023-12-07T12:33:12;58.92;;;24.48;;
75135;SDS011;63707;52.212;9.540;2023-12-07T12:35:39;53.00;;;23.20;;
75135;SDS011;63707;52.212;9.540;2023-12-07T12:38:08;51.72;;;22.88;;
75135;SDS011;63707;52.212;9.540;2023-12-07T12:40:36;47.10;;;22.88;;
75135;SDS011;63707;52.212;9.540;2023-12-07T12:43:02;55.95;;;23.20;;
75135;SDS011;63707;52.212;9.540;2023-12-07T12:45:27;49.65;;;22.10;;
75135;SDS011;63707;52.212;9.540;2023-12-07T12:47:53;52.08;;;23.55;;
75135;SDS011;63707;52.212;9.540;2023-12-07T12:50:33;53.80;;;23.98;;
75135;SDS011;63707;52.212;9.540;2023-12-07T12:52:59;54.38;;;23.38;;
75135;SDS011;63707;52.212;9.540;2023-12-07T12:55:26;47.15;;;21.85;;
75135;SDS011;63707;52.212;9.540;2023-12-07T12:57:55;56.30;;;23.52;;
75135;SDS011;63707;52.212;9.540;2023-12-07T13:00:21;48.28;;;21.98;;
75135;SDS011;63707;52.212;9.540;2023-12-07T13:02:47;48.35;;;21.70;;
75135;SDS011;63707;52.212;9.540;2023-12-07T13:05:13;51.92;;;22.00;;
75135;SDS011;63707;52.212;9.540;2023-12-07T13:07:38;46.50;;;21.95;;
75135;SDS011;63707;52.212;9.540;2023-12-07T13:10:04;50.95;;;22.10;;
75135;SDS011;63707;52.212;9.540;2023-12-07T13:12:33;53.30;;;22.20;;
75135;SDS011;63707;52.212;9.540;2023-12-07T13:15:01;52.05;;;21.70;;
75135;SDS011;63707;52.212;9.540;2023-12-07T13:17:27;52.28;;;19.95;;
75135;SDS011;63707;52.212;9.540;2023-12-07T13:19:53;45.95;;;19.98;;
75135;SDS011;63707;52.212;9.540;2023-12-07T13:22:19;44.17;;;19.85;;
75135;SDS011;63707;52.212;9.540;2023-12-07T13:24:47;45.72;;;21.17;;
75135;SDS011;63707;52.212;9.540;2023-12-07T13:27:13;41.72;;;18.90;;
75135;SDS011;63707;52.212;9.540;2023-12-07T13:29:40;47.40;;;20.08;;
75135;SDS011;63707;52.212;9.540;2023-12-07T13:32:07;47.83;;;19.58;;
75135;SDS011;63707;52.212;9.540;2023-12-07T13:34:33;41.15;;;18.23;;
75135;SDS011;63707;52.212;9.540;2023-12-07T13:36:59;40.50;;;18.63;;
75135;SDS011;63707;52.212;9.540;2023-12-07T13:39:24;39.65;;;17.30;;
75135;SDS011;63707;52.212;9.540;2023-12-07T13:41:51;42.15;;;19.15;;
75135;SDS011;63707;52.212;9.540;2023-12-07T13:44:17;41.85;;;18.90;;
75135;SDS011;63707;52.212;9.540;2023-12-07T13:46:43;40.78;;;19.13;;
75135;SDS011;63707;52.212;9.540;2023-12-07T13:49:10;41.22;;;17.95;;
75135;SDS011;63707;52.212;9.540;2023-12-07T13:51:37;39.05;;;18.00;;
75135;SDS011;63707;52.212;9.540;2023-12-07T13:54:03;37.60;;;16.48;;
75135;SDS011;63707;52.212;9.540;2023-12-07T13:56:28;38.13;;;17.05;;
75135;SDS011;63707;52.212;9.540;2023-12-07T13:58:54;35.05;;;15.98;;
75135;SDS011;63707;52.212;9.540;2023-12-07T14:01:19;39.70;;;15.85;;
75135;SDS011;63707;52.212;9.540;2023-12-07T14:03:45;35.17;;;14.93;;
75135;SDS011;63707;52.212;9.540;2023-12-07T14:06:19;30.58;;;15.20;;
75135;SDS011;63707;52.212;9.540;2023-12-07T14:08:46;36.70;;;15.13;;
75135;SDS011;63707;52.212;9.540;2023-12-07T14:11:12;30.42;;;13.55;;
75135;SDS011;63707;52.212;9.540;2023-12-07T14:13:38;30.65;;;14.65;;
75135;SDS011;63707;52.212;9.540;2023-12-07T14:16:05;32.80;;;14.77;;